Time;durP1;ratioP1;P1;durP2;ratioP2;P2;SDS_P1;SDS_P2;PMS_P1;PMS_P2;Temp;Humidity;BMP_temperature;BMP_pressure;BME280_temperature;BME280_humidity;BME280_pressure;Samples;Min_cycle;Max_cycle;Signal;HPM_P1;HPM_P2
2021/04/11 00:02:26;;;;;;;6.78;3.63;;;7.80;96.50;;;;;;5041853;28;20538;-63
2021/04/11 00:04:53;;;;;;;7.10;3.60;;;7.70;96.70;;;;;;5044500;28;20057;-63
2021/04/11 00:07:20;;;;;;;8.40;3.30;;;7.70;96.90;;;;;;5045482;28;20256;-63
2021/04/11 00:09:47;;;;;;;8.32;3.25;;;7.70;96.70;;;;;;5045164;28;20112;-63
2021/04/11 00:12:14;;;;;;;7.35;4.07;;;7.70;96.80;;;;;;5045020;28;20057;-63
2021/04/11 00:14:41;;;;;;;8.27;3.50;;;7.60;96.90;;;;;;5045098;28;20072;-63
2021/04/11 00:17:08;;;;;;;6.68;3.83;;;7.60;96.90;;;;;;5045069;28;20376;-64
2021/04/11 00:19:35;;;;;;;7.55;3.50;;;7.50;97.10;;;;;;5045606;28;20116;-64
2021/04/11 00:22:02;;;;;;;5.53;3.63;;;7.50;97.00;;;;;;5045243;28;20110;-63
2021/04/11 00:24:29;;;;;;;6.35;3.63;;;7.50;97.00;;;;;;5045939;28;20561;-63
2021/04/11 00:26:56;;;;;;;6.88;3.72;;;7.50;97.10;;;;;;5044417;28;20113;-63
2021/04/11 00:29:23;;;;;;;7.78;3.67;;;7.50;97.20;;;;;;5044267;28;20049;-63
2021/04/11 00:31:50;;;;;;;7.13;3.35;;;7.50;97.00;;;;;;5043789;28;20404;-63
2021/04/11 00:34:17;;;;;;;6.28;3.67;;;7.40;97.00;;;;;;5042884;28;20361;-64
2021/04/11 00:36:44;;;;;;;8.10;3.83;;;7.40;97.00;;;;;;5043771;28;20116;-63
2021/04/11 00:39:11;;;;;;;6.60;3.90;;;7.40;97.00;;;;;;5042872;28;20376;-64
2021/04/11 00:41:42;;;;;;;9.48;3.60;;;7.40;96.90;;;;;;5042084;28;20049;-63
2021/04/11 00:44:09;;;;;;;7.85;3.53;;;7.30;96.90;;;;;;5043336;28;20079;-62
2021/04/11 00:46:43;;;;;;;7.47;4.03;;;7.30;96.90;;;;;;5043306;28;20392;-63
2021/04/11 00:49:18;;;;;;;7.10;3.70;;;7.30;97.00;;;;;;5042972;28;20041;-63
2021/04/11 00:51:45;;;;;;;7.95;4.22;;;7.30;96.70;;;;;;5042006;28;20041;-62
2021/04/11 00:54:13;;;;;;;8.15;3.85;;;7.20;96.80;;;;;;5042660;28;20064;-64
2021/04/11 00:56:43;;;;;;;5.97;3.83;;;7.20;96.90;;;;;;5041476;28;20041;-63
2021/04/11 00:59:11;;;;;;;8.00;4.25;;;7.20;96.80;;;;;;5017661;28;20046;-64
2021/04/11 01:01:40;;;;;;;6.15;3.38;;;7.20;96.70;;;;;;5038616;28;20040;-64
2021/04/11 01:04:08;;;;;;;6.40;3.42;;;7.20;96.80;;;;;;5042632;28;20067;-63
2021/04/11 01:06:42;;;;;;;6.78;3.15;;;7.20;96.70;;;;;;5042725;28;20367;-64
2021/04/11 01:09:13;;;;;;;10.32;2.97;;;7.20;96.70;;;;;;5057578;28;20053;-64
2021/04/11 01:11:41;;;;;;;4.57;2.70;;;7.10;96.70;;;;;;5033803;28;20053;-64
2021/04/11 01:14:10;;;;;;;6.35;2.78;;;7.20;96.70;;;;;;5040872;28;20070;-64
2021/04/11 01:16:38;;;;;;;7.28;2.50;;;7.20;96.80;;;;;;5042899;28;20113;-64
2021/04/11 01:19:09;;;;;;;5.15;2.80;;;7.20;96.70;;;;;;5042730;28;20321;-64
2021/04/11 01:21:46;;;;;;;8.68;2.78;;;7.20;96.60;;;;;;5043878;28;20060;-64
2021/04/11 01:24:38;;;;;;;6.80;3.07;;;7.20;96.60;;;;;;4394329;28;10001062;-63
2021/04/11 01:27:09;;;;;;;6.45;3.20;;;7.30;96.50;;;;;;2778244;28;10001638;-62
2021/04/11 01:29:38;;;;;;;6.53;2.95;;;7.30;96.50;;;;;;5051094;28;20059;-63
2021/04/11 01:32:07;;;;;;;6.25;3.00;;;7.30;96.30;;;;;;5043850;28;20041;-63
2021/04/11 01:34:36;;;;;;;5.75;3.40;;;7.30;96.60;;;;;;5042843;28;20155;-63
2021/04/11 01:37:05;;;;;;;8.77;2.95;;;7.40;96.30;;;;;;5042804;28;20057;-64
2021/04/11 01:39:38;;;;;;;5.85;2.55;;;7.40;96.30;;;;;;5043341;28;20060;-64
2021/04/11 01:42:07;;;;;;;9.00;2.75;;;7.50;96.00;;;;;;5043095;28;20068;-63
2021/04/11 01:44:37;;;;;;;6.88;2.15;;;7.40;95.90;;;;;;5043990;28;20045;-63
2021/04/11 01:47:05;;;;;;;7.13;2.60;;;7.40;95.90;;;;;;5043258;28;20057;-63
2021/04/11 01:49:38;;;;;;;5.00;2.30;;;7.30;95.80;;;;;;5043486;28;20033;-63
2021/04/11 01:52:10;;;;;;;5.53;2.63;;;7.30;96.00;;;;;;5043051;28;20095;-64
2021/04/11 01:54:40;;;;;;;5.45;2.78;;;7.30;95.90;;;;;;5043085;28;20228;-64
2021/04/11 01:57:10;;;;;;;6.32;3.20;;;7.30;95.80;;;;;;5043354;28;20280;-63
2021/04/11 01:59:38;;;;;;;;;;;7.20;95.80;;;;;;5043036;28;20061;-64
2021/04/11 02:02:06;;;;;;;6.82;2.60;;;7.10;96.10;;;;;;5039464;28;19971;-64
2021/04/11 02:04:34;;;;;;;8.38;3.72;;;7.00;96.20;;;;;;5042933;28;20115;-64
2021/04/11 02:07:04;;;;;;;4.55;2.25;;;7.00;96.50;;;;;;5041408;28;20044;-63
2021/04/11 02:09:46;;;;;;;4.72;2.20;;;6.90;96.50;;;;;;5042224;28;20071;-63
2021/04/11 02:12:42;;;;;;;5.65;2.80;;;6.90;96.60;;;;;;5043302;28;20421;-64
2021/04/11 02:15:19;;;;;;;6.28;2.85;;;6.80;96.60;;;;;;5057269;28;20048;-64
2021/04/11 02:17:48;;;;;;;6.15;2.70;;;6.70;96.70;;;;;;5042384;28;20045;-63
2021/04/11 02:20:16;;;;;;;6.20;3.75;;;6.70;96.70;;;;;;5040710;28;20086;-63
2021/04/11 02:22:47;;;;;;;7.43;3.20;;;6.70;96.80;;;;;;5038196;28;20053;-64
2021/04/11 02:25:21;;;;;;;8.57;2.97;;;6.70;96.80;;;;;;5039911;28;20232;-65
2021/04/11 02:28:00;;;;;;;7.78;2.95;;;6.70;96.80;;;;;;5049378;28;20053;-64
2021/04/11 02:30:36;;;;;;;5.40;2.85;;;6.60;96.80;;;;;;5039732;28;20460;-63
2021/04/11 02:33:06;;;;;;;9.55;2.95;;;6.60;96.90;;;;;;4974015;28;20330;-63
2021/04/11 02:35:35;;;;;;;6.53;2.72;;;6.70;96.90;;;;;;4960001;28;20039;-64
2021/04/11 02:38:08;;;;;;;8.13;2.70;;;6.70;96.70;;;;;;4949734;28;20058;-64
2021/04/11 02:40:42;;;;;;;7.82;3.80;;;6.70;96.70;;;;;;4957191;28;20303;-64
2021/04/11 02:43:16;;;;;;;5.20;2.63;;;6.70;96.70;;;;;;4957975;28;20122;-64
2021/04/11 02:45:46;;;;;;;6.47;2.55;;;6.70;96.70;;;;;;4959936;28;20419;-63
2021/04/11 02:48:15;;;;;;;4.70;2.55;;;6.80;96.60;;;;;;4958423;28;20043;-64
2021/04/11 02:50:51;;;;;;;5.65;2.97;;;6.80;96.30;;;;;;4959042;28;20070;-64
2021/04/11 02:53:26;;;;;;;5.95;2.90;;;6.90;95.90;;;;;;4958538;28;20240;-64
2021/04/11 02:56:02;;;;;;;6.13;2.97;;;6.90;95.80;;;;;;4965463;28;20035;-64
2021/04/11 02:58:33;;;;;;;5.90;2.92;;;6.90;95.70;;;;;;4958276;28;20060;-63
2021/04/11 03:01:05;;;;;;;6.45;2.75;;;6.90;95.80;;;;;;4955934;28;20359;-64
2021/04/11 03:03:35;;;;;;;8.52;3.00;;;7.00;95.70;;;;;;4973655;28;20942;-64
2021/04/11 03:06:17;;;;;;;6.60;3.25;;;7.00;95.40;;;;;;4958580;28;20294;-64
2021/04/11 03:08:48;;;;;;;5.85;3.05;;;6.90;95.40;;;;;;4952640;28;20071;-63
2021/04/11 03:11:26;;;;;;;7.25;3.13;;;7.00;95.80;;;;;;4960354;28;20051;-63
2021/04/11 03:14:00;;;;;;;6.05;3.08;;;7.00;95.30;;;;;;4960162;28;20334;-64
2021/04/11 03:16:36;;;;;;;5.70;2.88;;;6.90;95.60;;;;;;4975598;28;20046;-64
2021/04/11 03:19:11;;;;;;;6.22;2.83;;;6.90;95.60;;;;;;4971999;28;20086;-64
2021/04/11 03:21:42;;;;;;;6.47;2.60;;;6.90;95.80;;;;;;4961240;28;20343;-63
2021/04/11 03:24:12;;;;;;;9.15;3.60;;;6.90;96.00;;;;;;4961165;28;20047;-63
2021/04/11 03:26:47;;;;;;;9.88;4.07;;;6.90;95.70;;;;;;4962434;28;20047;-63
2021/04/11 03:29:24;;;;;;;9.85;2.80;;;7.00;95.90;;;;;;4964406;28;20066;-63
2021/04/11 03:32:00;;;;;;;5.93;3.05;;;7.00;95.90;;;;;;4971121;28;20051;-63
2021/04/11 03:34:36;;;;;;;6.78;3.33;;;7.10;95.70;;;;;;4962822;28;20043;-64
2021/04/11 03:37:10;;;;;;;6.68;3.00;;;7.10;95.70;;;;;;4962643;28;20058;-64
2021/04/11 03:39:39;;;;;;;8.45;3.30;;;7.10;95.50;;;;;;4995264;28;20335;-64
2021/04/11 03:42:15;;;;;;;8.73;3.65;;;7.10;95.50;;;;;;4962822;28;20219;-64
2021/04/11 03:44:48;;;;;;;6.50;2.75;;;7.10;95.40;;;;;;4964242;28;20246;-64
2021/04/11 03:47:20;;;;;;;4.97;2.30;;;7.10;95.10;;;;;;4963178;28;20051;-63
2021/04/11 03:49:56;;;;;;;3.75;2.15;;;7.10;95.20;;;;;;4954826;28;20047;-63
2021/04/11 03:52:32;;;;;;;3.95;2.08;;;6.90;95.20;;;;;;4962136;28;20335;-64
2021/04/11 03:55:04;;;;;;;5.32;2.75;;;6.80;95.30;;;;;;4960926;28;20050;-64
2021/04/11 03:57:40;;;;;;;6.80;2.95;;;6.70;95.80;;;;;;4963721;28;20381;-63
2021/04/11 04:00:13;;;;;;;10.63;3.72;;;6.60;96.00;;;;;;4962961;28;20058;-63
2021/04/11 04:02:56;;;;;;;6.05;2.55;;;6.60;96.10;;;;;;4961754;28;20494;-64
2021/04/11 04:05:32;;;;;;;8.60;3.33;;;6.50;96.40;;;;;;4976997;28;20501;-63
2021/04/11 04:08:08;;;;;;;7.05;2.97;;;6.50;96.60;;;;;;4962110;28;20069;-63
2021/04/11 04:10:39;;;;;;;6.00;2.63;;;6.50;96.50;;;;;;4961741;28;20104;-63
2021/04/11 04:13:42;;;;;;;10.55;4.65;;;6.50;96.60;;;;;;4959396;28;20047;-64
2021/04/11 04:16:18;;;;;;;8.15;2.88;;;6.50;96.70;;;;;;4948695;28;20047;-64
2021/04/11 04:19:20;;;;;;;7.72;3.70;;;6.40;96.80;;;;;;4990806;28;20047;-63
2021/04/11 04:22:14;;;;;;;5.88;2.97;;;6.40;97.00;;;;;;4970476;28;20354;-64
2021/04/11 04:25:06;;;;;;;21.92;3.55;;;6.30;97.20;;;;;;4951215;28;20374;-64
2021/04/11 04:27:50;;;;;;;;;;;6.30;97.30;;;;;;4959183;28;20879;-64
2021/04/11 04:30:25;;;;;;;6.10;3.45;;;6.30;97.30;;;;;;4969454;28;19934;-63
2021/04/11 04:33:18;;;;;;;20.60;3.90;;;6.30;97.40;;;;;;4961689;28;20246;-64
2021/04/11 04:35:53;;;;;;;6.43;2.85;;;6.20;97.30;;;;;;4959258;28;20055;-64
2021/04/11 04:38:25;;;;;;;5.78;2.50;;;6.20;97.50;;;;;;4959298;28;20239;-63
2021/04/11 04:41:10;;;;;;;9.70;4.05;;;6.20;97.50;;;;;;4977517;28;20085;-63
2021/04/11 04:43:55;;;;;;;8.93;3.30;;;6.20;97.50;;;;;;4969328;28;20641;-64
2021/04/11 04:46:37;;;;;;;6.57;2.15;;;6.30;97.60;;;;;;4959572;28;20563;-64
2021/04/11 04:49:14;;;;;;;6.57;2.35;;;6.30;97.60;;;;;;4959337;28;20047;-64
2021/04/11 04:51:47;;;;;;;9.98;1.98;;;6.40;97.60;;;;;;4960883;28;20051;-63
2021/04/11 04:54:23;;;;;;;10.40;2.67;;;6.40;97.40;;;;;;4967547;28;20096;-63
2021/04/11 04:56:58;;;;;;;6.70;2.42;;;6.40;97.50;;;;;;4947123;28;20043;-63
2021/04/11 04:59:35;;;;;;;6.70;2.75;;;6.50;97.40;;;;;;4979451;28;20359;-63
2021/04/11 05:02:09;;;;;;;6.13;2.42;;;6.50;97.10;;;;;;4961147;28;20043;-63
2021/04/11 05:04:53;;;;;;;8.95;2.47;;;6.60;97.00;;;;;;4954454;28;20052;-64
2021/04/11 05:07:27;;;;;;;5.65;2.35;;;6.60;96.60;;;;;;4968836;28;20059;-63
2021/04/11 05:10:03;;;;;;;6.47;2.40;;;6.70;96.60;;;;;;4952904;28;20055;-63
2021/04/11 05:13:01;;;;;;;8.48;2.70;;;6.80;96.50;;;;;;4958844;28;20478;-63
2021/04/11 05:15:36;;;;;;;5.28;2.13;;;6.90;96.10;;;;;;4961799;28;20469;-64
2021/04/11 05:18:23;;;;;;;4.03;2.20;;;7.10;95.80;;;;;;4962566;28;20086;-64
2021/04/11 05:21:10;;;;;;;8.55;3.22;;;7.20;95.30;;;;;;4961721;28;20384;-64
2021/04/11 05:23:44;;;;;;;7.00;3.22;;;7.20;94.50;;;;;;4930952;28;20071;-64
2021/04/11 05:26:18;;;;;;;7.55;3.83;;;7.30;94.60;;;;;;4944641;28;20051;-64
2021/04/11 05:28:53;;;;;;;10.13;4.57;;;7.50;94.30;;;;;;4963059;28;20392;-64
2021/04/11 05:31:25;;;;;;;6.18;3.25;;;7.60;93.90;;;;;;4975074;28;20058;-64
2021/04/11 05:33:56;;;;;;;4.90;2.50;;;7.60;93.80;;;;;;4962938;28;20051;-64
2021/04/11 05:36:37;;;;;;;5.18;2.92;;;7.50;93.70;;;;;;4961980;28;20047;-64
2021/04/11 05:39:14;;;;;;;5.38;2.95;;;7.50;93.50;;;;;;4960250;28;20070;-64
2021/04/11 05:41:46;;;;;;;5.30;2.85;;;7.60;93.70;;;;;;4962391;28;20082;-64
2021/04/11 05:44:19;;;;;;;4.82;2.60;;;7.60;93.40;;;;;;4961853;28;20066;-64
2021/04/11 05:46:55;;;;;;;7.13;3.22;;;7.40;93.80;;;;;;4962437;28;20055;-63
2021/04/11 05:49:32;;;;;;;4.82;2.45;;;7.50;93.90;;;;;;4960570;28;20387;-64
2021/04/11 05:52:03;;;;;;;5.40;2.40;;;7.50;93.50;;;;;;4962350;28;20054;-64
2021/04/11 05:54:35;;;;;;;5.22;2.63;;;7.50;93.80;;;;;;4961853;28;20364;-64
2021/04/11 05:57:06;;;;;;;6.47;3.38;;;7.60;93.80;;;;;;4961411;28;20082;-64
2021/04/11 05:59:37;;;;;;;5.78;3.03;;;7.60;93.50;;;;;;4961669;28;20110;-64
2021/04/11 06:02:10;;;;;;;6.25;3.30;;;7.70;93.70;;;;;;4956771;28;20051;-64
2021/04/11 06:04:44;;;;;;;4.95;2.80;;;7.80;93.70;;;;;;4960381;28;20318;-63
2021/04/11 06:07:16;;;;;;;11.13;3.55;;;7.90;93.50;;;;;;4975239;28;20069;-64
2021/04/11 06:09:47;;;;;;;5.60;2.97;;;8.10;93.30;;;;;;4959870;28;20059;-64
2021/04/11 06:12:21;;;;;;;6.20;2.85;;;8.20;92.40;;;;;;4961155;28;20058;-64
2021/04/11 06:14:58;;;;;;;7.40;2.50;;;8.30;91.80;;;;;;4960261;28;20107;-64
2021/04/11 06:17:29;;;;;;;6.75;2.92;;;8.60;92.20;;;;;;4959502;28;20058;-64
2021/04/11 06:19:58;;;;;;;4.35;2.50;;;8.70;91.50;;;;;;4960164;28;20061;-64
2021/04/11 06:22:31;;;;;;;5.55;3.25;;;8.80;91.20;;;;;;4958615;28;20071;-64
2021/04/11 06:25:05;;;;;;;6.97;3.47;;;9.00;91.20;;;;;;4961297;28;20116;-63
2021/04/11 06:27:43;;;;;;;6.10;3.42;;;9.10;91.00;;;;;;4959249;28;20323;-63
2021/04/11 06:30:16;;;;;;;6.53;3.08;;;9.00;90.90;;;;;;4958622;28;20050;-64
2021/04/11 06:32:59;;;;;;;4.57;2.47;;;8.90;91.00;;;;;;4936796;28;20102;-63
2021/04/11 06:35:33;;;;;;;5.22;2.40;;;8.80;91.40;;;;;;4966312;28;20454;-64
2021/04/11 06:38:03;;;;;;;5.70;2.45;;;9.00;91.50;;;;;;4958472;28;20370;-64
2021/04/11 06:40:52;;;;;;;7.22;3.50;;;9.20;91.30;;;;;;4959079;28;20466;-64
2021/04/11 06:43:46;;;;;;;4.75;2.17;;;9.30;91.00;;;;;;4959769;28;20077;-64
2021/04/11 06:46:22;;;;;;;4.57;2.50;;;9.50;90.30;;;;;;4957398;28;20089;-64
2021/04/11 06:49:02;;;;;;;6.82;3.22;;;9.70;90.00;;;;;;4959383;28;20053;-64
2021/04/11 06:51:51;;;;;;;4.50;2.28;;;9.90;89.90;;;;;;5001299;28;20334;-64
2021/04/11 06:54:48;;;;;;;4.85;2.42;;;10.10;89.40;;;;;;5040756;28;20060;-64
2021/04/11 06:57:29;;;;;;;5.15;2.70;;;10.10;88.80;;;;;;5041241;28;20061;-64
2021/04/11 07:00:20;;;;;;;7.70;3.15;;;10.10;89.60;;;;;;5042326;28;20041;-63
2021/04/11 07:03:10;;;;;;;;;;;10.30;88.80;;;;;;5044387;28;20282;-63
2021/04/11 07:05:58;;;;;;;;;;;10.20;88.20;;;;;;5019439;28;20700;-64
2021/04/11 07:08:59;;;;;;;4.20;2.30;;;10.20;88.70;;;;;;5042510;28;20239;-64
2021/04/11 07:11:44;;;;;;;;;;;10.40;88.70;;;;;;5043705;28;20427;-63
2021/04/11 07:14:39;;;;;;;4.10;2.22;;;10.70;88.50;;;;;;5025226;28;19932;-63
2021/04/11 07:17:45;;;;;;;4.13;2.17;;;10.80;87.30;;;;;;5045845;28;20048;-63
2021/04/11 07:20:47;;;;;;;6.38;2.50;;;11.10;87.10;;;;;;5044040;28;20049;-63
2021/04/11 07:23:45;;;;;;;6.00;2.70;;;11.20;86.30;;;;;;5046088;28;20099;-63
2021/04/11 07:26:28;;;;;;;6.85;3.20;;;11.30;86.50;;;;;;5044181;28;20104;-63
2021/04/11 07:29:12;;;;;;;4.97;2.30;;;11.30;85.00;;;;;;5044973;28;20145;-64
2021/04/11 07:32:14;;;;;;;7.97;3.35;;;11.60;84.40;;;;;;5044770;28;20430;-64
2021/04/11 07:35:07;;;;;;;5.93;3.10;;;11.90;84.10;;;;;;5044287;28;20395;-63
2021/04/11 07:37:53;;;;;;;7.70;2.90;;;11.90;82.70;;;;;;5044652;28;20354;-62
2021/04/11 07:40:29;;;;;;;6.95;2.65;;;11.70;83.10;;;;;;5045000;28;20065;-63
2021/04/11 07:43:25;;;;;;;5.45;3.03;;;12.10;82.60;;;;;;5018657;28;20076;-64
2021/04/11 07:46:20;;;;;;;5.80;2.95;;;12.20;81.70;;;;;;5044151;28;20613;-63
2021/04/11 07:49:06;;;;;;;5.35;2.58;;;12.20;81.00;;;;;;4962460;28;20806;-64
2021/04/11 07:51:54;;;;;;;6.93;2.90;;;12.30;81.30;;;;;;4962817;28;20340;-63
2021/04/11 07:54:50;;;;;;;5.70;2.83;;;12.40;80.00;;;;;;4962689;28;20347;-64
2021/04/11 07:57:53;;;;;;;4.97;2.33;;;12.30;80.50;;;;;;4961867;28;20109;-63
2021/04/11 08:00:37;;;;;;;4.07;2.25;;;12.20;79.00;;;;;;4954624;28;20079;-63
2021/04/11 08:03:26;;;;;;;4.38;2.15;;;12.40;79.60;;;;;;4963270;28;20990;-63
2021/04/11 08:06:15;;;;;;;6.38;1.88;;;12.70;78.80;;;;;;4954620;28;20342;-63
2021/04/11 08:09:02;;;;;;;3.72;1.77;;;12.80;77.40;;;;;;4946375;28;20589;-63
2021/04/11 08:12:04;;;;;;;5.65;2.22;;;13.00;76.80;;;;;;4961551;28;20440;-64
2021/04/11 08:14:47;;;;;;;5.03;1.70;;;13.00;76.40;;;;;;4961718;28;20575;-63
2021/04/11 08:17:36;;;;;;;2.92;1.45;;;13.10;75.40;;;;;;4961999;28;20047;-64
2021/04/11 08:20:26;;;;;;;5.40;1.60;;;13.30;74.00;;;;;;4962734;28;20368;-63
2021/04/11 08:23:21;;;;;;;7.35;1.80;;;13.60;72.80;;;;;;4968356;28;20043;-63
2021/04/11 08:26:04;;;;;;;4.40;1.60;;;13.60;71.60;;;;;;4960755;28;20374;-62
2021/04/11 08:29:02;;;;;;;3.72;1.83;;;13.60;73.20;;;;;;4938902;28;20939;-63
2021/04/11 08:32:00;;;;;;;3.40;1.40;;;13.70;73.40;;;;;;4962012;28;20346;-63
2021/04/11 08:34:53;;;;;;;2.92;1.40;;;13.80;72.90;;;;;;4962641;28;21269;-63
2021/04/11 08:38:08;;;;;;;3.25;1.70;;;14.10;71.40;;;;;;4960121;28;21428;-63
2021/04/11 08:41:07;;;;;;;3.10;1.65;;;14.10;72.00;;;;;;4959586;28;21002;-63
2021/04/11 08:43:50;;;;;;;3.63;1.77;;;14.50;69.90;;;;;;4960412;28;20521;-63
2021/04/11 08:46:32;;;;;;;4.78;1.67;;;14.50;68.30;;;;;;4962820;28;20361;-63
2021/04/11 08:49:09;;;;;;;5.80;2.05;;;14.60;69.20;;;;;;4961769;28;20069;-64
2021/04/11 08:51:48;;;;;;;6.50;2.47;;;14.90;68.60;;;;;;4969837;28;21397;-63
2021/04/11 08:54:27;;;;;;;4.00;1.97;;;15.10;67.70;;;;;;4962696;28;20055;-63
2021/04/11 08:57:00;;;;;;;5.75;2.05;;;15.10;67.90;;;;;;4962802;28;20346;-63
2021/04/11 08:59:42;;;;;;;5.00;1.50;;;15.40;67.20;;;;;;4970353;28;21295;-63
2021/04/11 09:02:42;;;;;;;4.18;1.50;;;15.90;63.20;;;;;;4960451;28;20062;-63
2021/04/11 09:05:22;;;;;;;4.38;1.38;;;15.80;61.40;;;;;;4944854;28;20075;-63
2021/04/11 09:08:13;;;;;;;6.55;1.75;;;15.70;62.00;;;;;;4961429;28;20086;-63
2021/04/11 09:10:58;;;;;;;4.72;2.08;;;15.90;63.00;;;;;;4961861;28;20417;-64
2021/04/11 09:13:40;;;;;;;4.82;1.60;;;16.20;60.60;;;;;;4960602;28;20573;-63
2021/04/11 09:16:16;;;;;;;2.47;1.38;;;16.10;59.60;;;;;;4962698;28;20346;-63
2021/04/11 09:18:57;;;;;;;3.50;1.20;;;16.00;58.70;;;;;;4963123;28;20062;-63
2021/04/11 09:21:39;;;;;;;3.45;1.13;;;16.00;58.50;;;;;;4963092;28;20054;-63
2021/04/11 09:24:12;;;;;;;3.58;1.10;;;16.20;59.20;;;;;;4962794;28;20054;-63
2021/04/11 09:27:19;;;;;;;3.17;1.10;;;16.10;59.60;;;;;;4964547;28;20047;-63
2021/04/11 09:29:53;;;;;;;2.95;0.93;;;16.10;59.30;;;;;;4962254;28;20605;-63
2021/04/11 09:32:51;;;;;;;3.72;1.83;;;16.20;57.80;;;;;;4962029;28;20391;-63
2021/04/11 09:35:35;;;;;;;3.42;0.80;;;16.10;58.00;;;;;;4962431;28;20318;-63
2021/04/11 09:38:33;;;;;;;2.30;0.68;;;16.30;58.80;;;;;;4963177;28;20062;-62
2021/04/11 09:41:38;;;;;;;1.30;0.70;;;16.50;58.00;;;;;;4962615;28;20043;-63
2021/04/11 09:44:46;;;;;;;2.20;0.80;;;16.90;56.30;;;;;;4964036;28;20051;-63
2021/04/11 09:47:46;;;;;;;2.08;0.60;;;16.70;56.90;;;;;;4962745;28;20047;-63
2021/04/11 09:50:28;;;;;;;7.15;1.00;;;17.10;56.50;;;;;;4960031;28;20100;-63
2021/04/11 09:53:31;;;;;;;2.03;0.80;;;17.10;56.10;;;;;;4960867;28;20055;-63
2021/04/11 09:56:08;;;;;;;3.33;0.98;;;17.20;55.20;;;;;;4959132;28;20231;-63
2021/04/11 09:59:10;;;;;;;4.07;0.88;;;17.00;56.10;;;;;;4961125;28;20823;-63
2021/04/11 10:01:48;;;;;;;3.28;0.90;;;16.90;57.00;;;;;;4955675;28;20465;-64
2021/04/11 10:04:38;;;;;;;2.08;0.85;;;16.90;57.80;;;;;;4958506;28;20052;-64
2021/04/11 10:07:27;;;;;;;1.63;0.70;;;16.70;55.90;;;;;;4955126;28;20070;-63
2021/04/11 10:10:08;;;;;;;2.95;0.95;;;16.80;56.40;;;;;;4961038;28;20239;-63
2021/04/11 10:13:00;;;;;;;3.38;0.75;;;17.10;56.10;;;;;;4962123;28;20231;-63
2021/04/11 10:15:42;;;;;;;3.30;0.82;;;17.00;56.30;;;;;;4962361;28;20208;-64
2021/04/11 10:18:36;;;;;;;2.72;0.90;;;17.20;55.40;;;;;;4950666;28;20062;-63
2021/04/11 10:21:24;;;;;;;2.67;1.05;;;17.20;55.70;;;;;;4958824;28;20038;-64
2021/04/11 10:24:23;;;;;;;2.45;0.90;;;17.30;55.20;;;;;;4960530;28;20123;-64
2021/04/11 10:26:55;;;;;;;3.40;1.27;;;17.20;55.30;;;;;;4961560;28;20834;-64
2021/04/11 10:29:25;;;;;;;1.55;0.88;;;17.00;56.40;;;;;;4960203;28;20050;-64
2021/04/11 10:32:00;;;;;;;2.17;0.75;;;17.00;56.40;;;;;;4977978;28;20224;-64
2021/04/11 10:34:36;;;;;;;2.00;0.73;;;17.00;55.60;;;;;;4961125;28;20365;-63
2021/04/11 10:37:11;;;;;;;2.65;0.80;;;17.30;56.10;;;;;;4960177;28;20051;-64
2021/04/11 10:39:47;;;;;;;2.78;1.20;;;17.50;55.50;;;;;;4962001;28;20051;-64
2021/04/11 10:42:37;;;;;;;4.22;1.23;;;18.10;54.10;;;;;;4962695;28;20114;-64
2021/04/11 10:45:18;;;;;;;2.72;1.20;;;18.10;53.20;;;;;;4961586;28;20097;-64
2021/04/11 10:48:15;;;;;;;3.47;1.02;;;18.00;52.80;;;;;;4961142;28;20047;-64
2021/04/11 10:50:52;;;;;;;3.10;1.33;;;18.30;53.20;;;;;;5045282;28;21015;-64
2021/04/11 10:53:44;;;;;;;3.85;1.27;;;19.50;50.40;;;;;;5042471;28;20050;-63
2021/04/11 10:56:23;;;;;;;3.05;1.10;;;19.80;48.40;;;;;;5043454;28;20056;-63
2021/04/11 10:59:15;;;;;;;2.25;1.08;;;19.50;47.90;;;;;;5043223;28;20073;-63
2021/04/11 11:01:56;;;;;;;3.92;1.33;;;19.30;48.40;;;;;;5039191;28;20616;-62
2021/04/11 11:04:54;;;;;;;3.72;1.10;;;19.30;48.40;;;;;;5042183;28;20345;-63
2021/04/11 11:07:45;;;;;;;3.92;1.67;;;19.20;48.00;;;;;;5042030;28;20061;-64
2021/04/11 11:10:21;;;;;;;2.15;0.98;;;19.50;47.60;;;;;;5042329;28;20248;-63
2021/04/11 11:13:14;;;;;;;2.25;1.30;;;20.70;44.90;;;;;;5042534;28;20068;-62
2021/04/11 11:16:10;;;;;;;3.00;0.90;;;20.20;45.50;;;;;;5049305;28;20390;-63
2021/04/11 11:18:54;;;;;;;4.03;0.90;;;20.30;44.60;;;;;;5035025;28;20210;-63
2021/04/11 11:21:43;;;;;;;9.35;3.65;;;19.40;46.90;;;;;;5043185;28;20053;-64
2021/04/11 11:24:34;;;;;;;3.25;1.52;;;18.50;48.50;;;;;;5041221;28;20096;-63
2021/04/11 11:27:32;;;;;;;2.65;1.17;;;18.00;49.90;;;;;;5043049;28;20068;-63
2021/04/11 11:30:13;;;;;;;3.95;1.90;;;18.20;50.90;;;;;;5041876;28;20099;-63
2021/04/11 11:32:54;;;;;;;2.70;0.75;;;18.50;49.50;;;;;;4951320;28;20403;-63
2021/04/11 11:35:22;;;;;;;2.58;0.90;;;18.60;50.20;;;;;;4962021;28;20043;-63
2021/04/11 11:37:57;;;;;;;2.25;0.95;;;18.60;50.50;;;;;;4960642;28;20055;-64
2021/04/11 11:40:39;;;;;;;3.05;0.73;;;18.50;49.90;;;;;;4958485;28;20062;-64
2021/04/11 11:43:29;;;;;;;1.10;0.65;;;18.30;49.70;;;;;;4959262;28;20055;-64
2021/04/11 11:46:18;;;;;;;1.60;0.60;;;17.70;51.20;;;;;;4956153;28;20047;-64
2021/04/11 11:49:02;;;;;;;1.52;0.50;;;17.40;52.10;;;;;;4961044;28;20594;-63
2021/04/11 11:51:43;;;;;;;1.00;0.50;;;17.20;53.50;;;;;;4962483;28;20443;-63
2021/04/11 11:54:20;;;;;;;1.58;0.55;;;17.10;53.00;;;;;;4960764;28;20114;-63
2021/04/11 11:57:04;;;;;;;2.05;0.68;;;17.00;53.60;;;;;;4964173;28;20046;-63
2021/04/11 11:59:37;;;;;;;2.25;0.82;;;17.00;52.80;;;;;;4963851;28;20623;-63
2021/04/11 12:02:19;;;;;;;1.48;0.60;;;16.90;54.00;;;;;;4959086;28;20391;-63
2021/04/11 12:04:56;;;;;;;0.73;0.40;;;17.10;54.00;;;;;;4966925;28;20051;-63
2021/04/11 12:07:27;;;;;;;3.05;0.90;;;17.00;53.30;;;;;;4980565;28;20039;-63
2021/04/11 12:10:15;;;;;;;2.38;0.75;;;17.10;54.10;;;;;;4960233;28;20055;-63
2021/04/11 12:12:53;;;;;;;2.72;1.17;;;17.30;54.00;;;;;;4962305;28;20483;-64
2021/04/11 12:15:26;;;;;;;2.72;0.93;;;17.50;54.20;;;;;;4945843;28;20096;-63
2021/04/11 12:18:03;;;;;;;5.60;0.93;;;17.60;53.40;;;;;;4963036;28;20111;-64
2021/04/11 12:20:36;;;;;;;2.83;1.05;;;18.00;52.40;;;;;;4960452;28;20349;-64
2021/04/11 12:23:09;;;;;;;2.42;1.00;;;18.70;51.10;;;;;;4965708;28;20055;-64
2021/04/11 12:25:38;;;;;;;2.70;0.73;;;18.70;49.80;;;;;;4963456;28;20051;-65
2021/04/11 12:28:22;;;;;;;4.28;0.90;;;18.60;50.20;;;;;;4965007;28;20154;-64
2021/04/11 12:30:51;;;;;;;3.53;0.88;;;18.60;51.00;;;;;;4963841;28;20050;-63
2021/04/11 12:33:25;;;;;;;2.55;1.00;;;18.70;49.90;;;;;;4963700;28;20063;-63
2021/04/11 12:36:05;;;;;;;2.40;1.27;;;18.70;49.80;;;;;;4965863;28;20074;-63
2021/04/11 12:38:42;;;;;;;3.80;0.80;;;18.90;50.00;;;;;;4960674;28;20377;-63
2021/04/11 12:41:22;;;;;;;4.70;0.80;;;18.60;50.90;;;;;;4963309;28;20055;-63
2021/04/11 12:44:04;;;;;;;1.17;0.70;;;18.30;51.00;;;;;;4954693;28;20085;-63
2021/04/11 12:46:38;;;;;;;2.05;0.80;;;18.00;52.50;;;;;;4962335;28;20460;-63
2021/04/11 12:49:18;;;;;;;5.93;1.02;;;17.70;53.30;;;;;;4963622;28;20051;-64
2021/04/11 12:51:57;;;;;;;2.85;1.08;;;17.70;53.40;;;;;;4963827;28;20051;-63
2021/04/11 12:54:34;;;;;;;1.38;0.80;;;17.10;53.40;;;;;;4962669;28;20047;-64
2021/04/11 12:57:07;;;;;;;2.10;0.82;;;16.80;53.30;;;;;;4963656;28;20039;-63
2021/04/11 12:59:40;;;;;;;5.28;0.80;;;16.70;54.70;;;;;;4960987;28;20059;-63
2021/04/11 13:02:15;;;;;;;1.73;0.70;;;16.80;55.10;;;;;;4947380;28;20055;-63
2021/04/11 13:04:50;;;;;;;1.52;0.60;;;16.50;56.80;;;;;;4992671;28;20046;-64
2021/04/11 13:07:24;;;;;;;4.50;0.77;;;16.30;57.70;;;;;;4957551;28;20051;-63
2021/04/11 13:10:21;;;;;;;1.65;0.70;;;16.10;57.90;;;;;;4959470;28;20104;-64
2021/04/11 13:13:05;;;;;;;1.20;0.65;;;15.90;58.50;;;;;;4958865;28;20250;-63
2021/04/11 13:15:40;;;;;;;3.67;1.27;;;15.90;58.50;;;;;;5070573;28;20106;-64
2021/04/11 13:18:20;;;;;;;3.67;1.60;;;15.80;58.50;;;;;;5041617;28;20053;-63
2021/04/11 13:21:04;;;;;;;2.25;0.80;;;15.70;59.20;;;;;;5044881;28;20049;-64
2021/04/11 13:23:36;;;;;;;3.13;1.10;;;15.70;59.60;;;;;;5042584;28;20570;-63
2021/04/11 13:26:13;;;;;;;4.13;1.75;;;15.90;60.20;;;;;;5040445;28;20049;-62
2021/04/11 13:28:48;;;;;;;4.75;1.85;;;15.90;60.50;;;;;;5040159;28;20133;-63
2021/04/11 13:31:22;;;;;;;7.03;2.88;;;15.80;61.20;;;;;;5039717;28;20284;-64
2021/04/11 13:33:53;;;;;;;5.90;2.15;;;16.40;60.30;;;;;;5040277;28;20053;-63
2021/04/11 13:36:32;;;;;;;4.47;1.77;;;16.40;59.50;;;;;;5043303;28;20057;-63
2021/04/11 13:39:08;;;;;;;6.40;1.83;;;16.30;60.40;;;;;;5029862;28;20045;-64
2021/04/11 13:42:03;;;;;;;5.40;1.58;;;16.40;60.80;;;;;;5030583;28;20143;-64
2021/04/11 13:44:40;;;;;;;5.75;1.52;;;16.40;60.00;;;;;;5030577;28;20054;-64
2021/04/11 13:47:16;;;;;;;3.80;1.20;;;16.00;61.30;;;;;;5032098;28;20091;-64
2021/04/11 13:49:51;;;;;;;3.47;1.67;;;15.80;62.50;;;;;;5035494;28;20778;-64
2021/04/11 13:52:26;;;;;;;3.65;2.20;;;15.60;64.80;;;;;;5035396;28;20052;-64
2021/04/11 13:55:02;;;;;;;2.65;1.60;;;15.30;66.10;;;;;;5035674;28;20394;-64
2021/04/11 13:57:44;;;;;;;4.55;2.30;;;15.20;66.60;;;;;;5037330;28;20534;-64